createdAt,value
2018-08-17T00:00:15.789Z,64.82
2018-08-17T00:01:15.819Z,64.53
2018-08-17T00:02:15.839Z,65.11
2018-08-17T00:03:15.870Z,65.50
2018-08-17T00:04:15.895Z,64.82
2018-08-17T00:05:15.992Z,65.30
2018-08-17T00:06:15.944Z,65.11
2018-08-17T00:07:15.975Z,64.72
2018-08-17T00:08:16.003Z,64.72
2018-08-17T00:09:16.019Z,64.92
2018-08-17T00:10:16.051Z,64.82
2018-08-17T00:11:16.076Z,65.11
2018-08-17T00:12:16.101Z,65.01
2018-08-17T00:13:16.127Z,65.01
2018-08-17T00:14:16.156Z,65.11
2018-08-17T00:15:16.174Z,65.59
2018-08-17T00:16:16.203Z,64.82
2018-08-17T00:17:16.247Z,65.50
2018-08-17T00:18:16.253Z,65.69
2018-08-17T00:19:16.284Z,65.59
2018-08-17T00:20:16.318Z,66.08
2018-08-17T00:21:16.334Z,66.43
2018-08-17T00:22:16.366Z,66.63
2018-08-17T00:23:16.377Z,66.82
2018-08-17T00:24:16.424Z,66.27
2018-08-17T00:25:16.480Z,65.69
2018-08-17T00:26:16.466Z,66.14
2018-08-17T00:27:16.494Z,66.63
2018-08-17T00:28:16.512Z,66.27
2018-08-17T00:29:16.545Z,65.75
2018-08-17T00:30:16.566Z,66.17
2018-08-17T00:31:16.594Z,66.08
2018-08-17T00:32:16.614Z,65.98
2018-08-17T00:33:16.649Z,66.47
2018-08-17T00:34:16.674Z,66.75
2018-08-17T00:35:16.702Z,65.69
2018-08-17T00:36:16.719Z,66.53
2018-08-17T00:37:16.744Z,67.30
2018-08-17T00:38:16.772Z,66.27
2018-08-17T00:39:16.795Z,66.08
2018-08-17T00:40:16.819Z,66.05
2018-08-17T00:41:16.842Z,66.91
2018-08-17T00:42:16.872Z,66.43
2018-08-17T00:43:16.897Z,66.53
2018-08-17T00:44:16.922Z,65.95
2018-08-17T00:45:16.950Z,65.75
2018-08-17T00:46:16.983Z,65.01
2018-08-17T00:47:17.002Z,64.62
2018-08-17T00:48:17.022Z,64.62
2018-08-17T00:49:17.052Z,64.14
2018-08-17T00:50:17.074Z,65.30
2018-08-17T00:51:17.096Z,65.01
2018-08-17T00:52:17.124Z,65.20
2018-08-17T00:53:17.152Z,64.82
2018-08-17T00:54:17.177Z,64.92
2018-08-17T00:55:17.205Z,64.69
2018-08-17T00:56:17.237Z,65.17
2018-08-17T00:57:17.250Z,65.37
2018-08-17T00:58:17.282Z,65.27
2018-08-17T00:59:17.441Z,65.56
2018-08-17T01:00:17.331Z,65.37
2018-08-17T01:01:17.354Z,65.47
2018-08-17T01:02:17.376Z,65.66
2018-08-17T01:03:17.422Z,65.47
2018-08-17T01:04:17.430Z,65.56
2018-08-17T01:05:17.463Z,65.66
2018-08-17T01:06:17.484Z,65.37
2018-08-17T01:07:17.533Z,65.75
2018-08-17T01:08:17.548Z,65.66
2018-08-17T01:09:17.558Z,65.56
2018-08-17T01:10:17.583Z,66.24
2018-08-17T01:11:17.610Z,65.85
2018-08-17T01:12:17.648Z,66.72
2018-08-17T01:13:17.657Z,66.24
2018-08-17T01:14:17.696Z,66.33
2018-08-17T01:15:17.714Z,66.14
2018-08-17T01:16:17.741Z,65.56
2018-08-17T01:17:17.764Z,66.72
2018-08-17T01:18:17.795Z,66.53
2018-08-17T01:19:17.817Z,66.33
2018-08-17T01:20:17.841Z,67.21
2018-08-17T01:21:17.862Z,66.50
2018-08-17T01:22:17.893Z,66.24
2018-08-17T01:23:17.908Z,65.37
2018-08-17T01:24:17.939Z,65.75
2018-08-17T01:25:17.967Z,65.95
2018-08-17T01:26:17.987Z,66.14
2018-08-17T01:27:18.012Z,65.82
2018-08-17T01:28:18.041Z,65.37
2018-08-17T01:29:18.065Z,65.37
2018-08-17T01:30:18.093Z,65.05
2018-08-17T01:31:18.111Z,65.53
2018-08-17T01:32:18.149Z,65.92
2018-08-17T01:33:18.168Z,65.63
2018-08-17T01:34:18.200Z,66.11
2018-08-17T01:35:18.215Z,66.30
2018-08-17T01:36:18.242Z,66.50
2018-08-17T01:37:18.264Z,66.40
2018-08-17T01:38:18.296Z,65.75
2018-08-17T01:39:18.318Z,66.11
2018-08-17T01:40:18.345Z,65.82
2018-08-17T01:41:18.371Z,65.66
2018-08-17T01:42:18.401Z,64.50
2018-08-17T01:43:18.419Z,65.14
2018-08-17T01:44:18.445Z,64.89
2018-08-17T01:45:18.469Z,65.14
2018-08-17T01:46:18.499Z,65.53
2018-08-17T01:47:18.518Z,65.92
2018-08-17T01:48:18.545Z,65.82
2018-08-17T01:49:18.570Z,65.92
2018-08-17T01:50:18.601Z,65.08
2018-08-17T01:51:18.625Z,65.82
2018-08-17T01:52:18.661Z,66.75
2018-08-17T01:53:18.670Z,67.27
2018-08-17T01:54:18.702Z,67.08
2018-08-17T01:55:18.719Z,67.33
2018-08-17T01:56:18.751Z,67.36
2018-08-17T01:57:18.771Z,67.66
2018-08-17T01:58:18.799Z,67.43
2018-08-17T01:59:18.824Z,67.36
2018-08-17T02:00:18.860Z,67.85
2018-08-17T02:01:18.869Z,67.72
2018-08-17T02:02:18.953Z,68.20
2018-08-17T02:03:18.927Z,68.68
2018-08-17T02:04:18.955Z,68.24
2018-08-17T02:05:18.969Z,68.78
2018-08-17T02:06:19.000Z,68.78
2018-08-17T02:07:19.026Z,69.07
2018-08-17T02:08:19.052Z,69.17
2018-08-17T02:09:19.078Z,69.56
2018-08-17T02:10:19.099Z,69.65
2018-08-17T02:11:19.134Z,70.04
2018-08-17T02:12:19.154Z,70.14
2018-08-17T02:13:19.177Z,70.04
2018-08-17T02:14:19.195Z,70.23
2018-08-17T02:15:19.226Z,70.14
2018-08-17T02:16:19.261Z,70.42
2018-08-17T02:17:19.276Z,70.23
2018-08-17T02:18:19.294Z,70.62
2018-08-17T02:19:19.324Z,70.04
2018-08-17T02:20:19.349Z,69.36
2018-08-17T02:21:19.370Z,69.94
2018-08-17T02:22:19.409Z,70.14
2018-08-17T02:23:19.430Z,70.81
2018-08-17T02:24:19.502Z,70.32
2018-08-17T02:25:19.478Z,70.32
2018-08-17T02:26:19.499Z,70.42
2018-08-17T02:27:19.524Z,70.62
2018-08-17T02:28:19.549Z,70.42
2018-08-17T02:29:19.570Z,70.72
2018-08-17T02:30:19.596Z,70.62
2018-08-17T02:31:19.626Z,70.32
2018-08-17T02:32:19.650Z,71.16
2018-08-17T02:33:19.672Z,71.26
2018-08-17T02:34:19.703Z,70.68
2018-08-17T02:35:19.723Z,70.58
2018-08-17T02:36:19.748Z,71.36
2018-08-17T02:37:19.768Z,70.87
2018-08-17T02:38:19.797Z,71.26
2018-08-17T02:39:19.823Z,71.30
2018-08-17T02:40:19.856Z,70.81
2018-08-17T02:41:19.876Z,70.81
2018-08-17T02:42:19.897Z,70.04
2018-08-17T02:43:19.918Z,70.42
2018-08-17T02:44:19.940Z,70.58
2018-08-17T02:45:19.968Z,70.90
2018-08-17T02:46:20.002Z,70.42
2018-08-17T02:47:20.016Z,70.42
2018-08-17T02:48:20.048Z,71.26
2018-08-17T02:49:20.068Z,71.64
2018-08-17T02:50:20.100Z,71.39
2018-08-17T02:51:20.117Z,71.48
2018-08-17T02:52:20.148Z,71.30
2018-08-17T02:53:20.166Z,71.48
2018-08-17T02:54:20.201Z,70.72
2018-08-17T02:55:20.221Z,70.90
2018-08-17T02:56:20.241Z,71.00
2018-08-17T02:57:20.268Z,70.14
2018-08-17T02:58:20.288Z,70.90
2018-08-17T02:59:20.323Z,71.00
2018-08-17T03:00:20.346Z,71.39
2018-08-17T03:01:20.366Z,71.30
2018-08-17T03:02:20.387Z,71.39
2018-08-17T03:03:20.417Z,70.42
2018-08-17T03:04:20.441Z,70.32
2018-08-17T03:05:20.465Z,70.42
2018-08-17T03:06:20.492Z,70.42
2018-08-17T03:07:20.513Z,70.90
2018-08-17T03:08:20.542Z,70.81
2018-08-17T03:09:20.569Z,71.20
2018-08-17T03:10:20.590Z,70.90
2018-08-17T03:11:20.613Z,70.81
2018-08-17T03:12:20.636Z,70.23
2018-08-17T03:13:20.658Z,70.90
2018-08-17T03:14:20.687Z,70.90
2018-08-17T03:15:20.710Z,70.97
2018-08-17T03:16:20.735Z,70.87
2018-08-17T03:17:20.765Z,71.06
2018-08-17T03:18:20.782Z,70.68
2018-08-17T03:19:20.812Z,71.26
2018-08-17T03:20:20.839Z,70.87
2018-08-17T03:21:20.863Z,70.52
2018-08-17T03:22:20.887Z,70.32
2018-08-17T03:23:20.911Z,70.81
2018-08-17T03:24:20.933Z,70.97
2018-08-17T03:25:20.961Z,70.23
2018-08-17T03:26:20.986Z,70.62
2018-08-17T03:27:21.013Z,70.62
2018-08-17T03:28:21.045Z,70.42
2018-08-17T03:29:21.059Z,71.36
2018-08-17T03:30:21.088Z,72.03
2018-08-17T03:31:21.105Z,70.97
2018-08-17T03:32:21.134Z,71.64
2018-08-17T03:33:21.154Z,71.94
2018-08-17T03:34:21.182Z,71.26
2018-08-17T03:35:21.205Z,70.72
2018-08-17T03:36:21.228Z,70.78
2018-08-17T03:37:21.344Z,70.97
2018-08-17T03:38:21.280Z,71.16
2018-08-17T03:39:21.309Z,71.55
2018-08-17T03:40:21.339Z,71.10
2018-08-17T03:41:21.372Z,71.74
2018-08-17T03:42:21.373Z,71.06
2018-08-17T03:43:21.407Z,71.55
2018-08-17T03:44:21.426Z,71.06
2018-08-17T03:45:21.451Z,71.00
2018-08-17T03:46:21.499Z,71.36
2018-08-17T03:47:21.509Z,71.36
2018-08-17T03:48:21.532Z,71.55
2018-08-17T03:49:21.548Z,71.45
2018-08-17T03:50:21.581Z,71.26
2018-08-17T03:51:21.600Z,71.16
2018-08-17T03:52:21.672Z,71.30
2018-08-17T03:53:21.650Z,71.00
2018-08-17T03:54:21.672Z,70.72
2018-08-17T03:55:21.693Z,71.10
2018-08-17T03:56:21.726Z,71.36
2018-08-17T03:57:21.752Z,71.55
2018-08-17T03:58:21.767Z,71.84
2018-08-17T03:59:21.811Z,71.84
2018-08-17T04:00:21.837Z,71.55
2018-08-17T04:01:21.846Z,71.64
2018-08-17T04:02:21.870Z,72.42
2018-08-17T04:03:21.896Z,71.74
2018-08-17T04:04:21.920Z,71.94
2018-08-17T04:05:21.943Z,72.03
2018-08-17T04:06:21.968Z,71.55
2018-08-17T04:07:21.997Z,71.26
2018-08-17T04:08:22.034Z,71.64
2018-08-17T04:09:22.036Z,71.45
2018-08-17T04:10:22.067Z,71.64
2018-08-17T04:11:22.120Z,71.64
2018-08-17T04:12:22.118Z,71.74
2018-08-17T04:13:22.140Z,72.22
2018-08-17T04:14:22.187Z,71.36
2018-08-17T04:15:22.244Z,71.10
2018-08-17T04:16:22.212Z,71.30
2018-08-17T04:17:22.236Z,70.62
2018-08-17T04:18:22.261Z,71.06
2018-08-17T04:19:22.305Z,71.26
2018-08-17T04:20:22.310Z,71.45
2018-08-17T04:21:22.331Z,71.55
2018-08-17T04:22:22.369Z,72.86
2018-08-17T04:23:22.377Z,72.86
2018-08-17T04:24:22.415Z,73.35
2018-08-17T04:25:22.446Z,72.86
2018-08-17T04:26:22.453Z,72.96
2018-08-17T04:27:22.487Z,72.19
2018-08-17T04:28:22.508Z,72.13
2018-08-17T04:29:22.548Z,72.96
2018-08-17T04:30:22.563Z,73.54
2018-08-17T04:31:22.590Z,74.37
2018-08-17T04:32:22.611Z,74.79
2018-08-17T04:33:22.630Z,74.66
2018-08-17T04:34:22.660Z,74.79
2018-08-17T04:35:22.712Z,74.57
2018-08-17T04:36:22.703Z,74.02
2018-08-17T04:37:22.742Z,73.93
2018-08-17T04:38:22.791Z,73.73
2018-08-17T04:39:22.825Z,73.77
2018-08-17T04:40:22.800Z,73.83
2018-08-17T04:41:22.828Z,73.63
2018-08-17T04:42:22.850Z,73.73
2018-08-17T04:43:22.869Z,73.48
2018-08-17T04:44:22.898Z,73.77
2018-08-17T04:45:22.931Z,73.38
2018-08-17T04:46:22.942Z,73.77
2018-08-17T04:47:23.069Z,72.90
2018-08-17T04:48:23.014Z,73.09
2018-08-17T04:49:23.036Z,73.58
2018-08-17T04:50:23.044Z,73.35
2018-08-17T04:51:23.068Z,74.02
2018-08-17T04:52:23.089Z,73.63
2018-08-17T04:53:23.128Z,74.02
2018-08-17T04:54:23.142Z,74.31
2018-08-17T04:55:23.160Z,74.51
2018-08-17T04:56:23.184Z,74.02
2018-08-17T04:57:23.258Z,73.19
2018-08-17T04:58:23.239Z,73.44
2018-08-17T04:59:23.283Z,73.73
2018-08-17T05:00:23.285Z,72.96
2018-08-17T05:01:23.317Z,73.15
2018-08-17T05:02:23.351Z,73.25
2018-08-17T05:03:23.391Z,75.05
2018-08-17T05:04:23.381Z,74.12
2018-08-17T05:05:23.421Z,73.25
2018-08-17T05:06:23.434Z,73.54
2018-08-17T05:07:23.454Z,73.73
2018-08-17T05:08:23.480Z,74.02
2018-08-17T05:09:23.504Z,73.06
2018-08-17T05:10:23.532Z,72.09
2018-08-17T05:11:23.552Z,72.09
2018-08-17T05:12:23.584Z,71.51
2018-08-17T05:13:23.613Z,71.90
2018-08-17T05:14:23.626Z,70.87
2018-08-17T05:15:23.646Z,71.45
2018-08-17T05:16:23.672Z,72.09
2018-08-17T05:17:23.696Z,72.38
2018-08-17T05:18:23.728Z,72.48
2018-08-17T05:19:23.751Z,72.19
2018-08-17T05:20:23.924Z,71.70
2018-08-17T05:21:23.839Z,71.61
2018-08-17T05:22:23.821Z,71.80
2018-08-17T05:23:23.907Z,71.61
2018-08-17T05:24:23.908Z,72.28
2018-08-17T05:25:23.919Z,71.90
2018-08-17T05:26:23.921Z,72.19
2018-08-17T05:27:23.939Z,72.86
2018-08-17T05:28:23.969Z,72.86
2018-08-17T05:29:23.988Z,72.28
2018-08-17T05:31:24.039Z,72.28
2018-08-17T05:32:24.122Z,72.48
2018-08-17T05:33:24.197Z,72.77
2018-08-17T05:34:24.112Z,73.06
2018-08-17T05:35:24.137Z,72.96
2018-08-17T05:36:24.161Z,72.77
2018-08-17T05:37:24.183Z,73.25
2018-08-17T05:38:24.300Z,73.93
2018-08-17T05:39:24.231Z,73.15
2018-08-17T05:40:24.268Z,73.41
2018-08-17T05:41:24.271Z,73.31
2018-08-17T05:42:24.310Z,73.54
2018-08-17T05:44:24.354Z,73.99
2018-08-17T05:45:24.373Z,73.69
2018-08-17T05:46:24.409Z,74.37
2018-08-17T05:47:24.428Z,74.37
2018-08-17T05:48:24.558Z,73.79
2018-08-17T05:49:24.490Z,74.08
2018-08-17T05:50:24.507Z,74.27
2018-08-17T05:51:24.527Z,74.02
2018-08-17T05:52:24.552Z,74.08
2018-08-17T05:53:24.565Z,73.73
2018-08-17T05:54:24.598Z,73.69
2018-08-17T05:55:24.614Z,74.76
2018-08-17T05:56:24.641Z,75.43
2018-08-17T05:57:24.670Z,75.05
2018-08-17T05:58:24.687Z,74.79
2018-08-17T05:59:24.712Z,74.21
2018-08-17T06:00:24.743Z,73.63
2018-08-17T06:01:24.759Z,73.35
2018-08-17T06:02:24.830Z,73.44
2018-08-17T06:03:24.824Z,73.54
2018-08-17T06:04:24.834Z,73.28
2018-08-17T06:05:24.860Z,73.58
2018-08-17T06:06:24.898Z,73.96
2018-08-17T06:07:24.905Z,73.19
2018-08-17T06:08:25.034Z,73.58
2018-08-17T06:09:24.955Z,73.38
2018-08-17T06:10:24.991Z,73.58
2018-08-17T06:11:25.119Z,73.77
2018-08-17T06:12:25.047Z,73.38
2018-08-17T06:13:25.061Z,73.67
2018-08-17T06:14:25.082Z,73.09
2018-08-17T06:15:25.166Z,73.09
2018-08-17T06:16:25.129Z,72.90
2018-08-17T06:17:25.158Z,72.61
2018-08-17T06:18:25.182Z,72.84
2018-08-17T06:19:25.201Z,73.09
2018-08-17T06:20:25.248Z,73.71
2018-08-17T06:21:25.252Z,73.48
2018-08-17T06:22:25.277Z,73.42
2018-08-17T06:23:25.306Z,73.61
2018-08-17T06:24:25.322Z,74.10
2018-08-17T06:25:25.344Z,73.42
2018-08-17T06:26:25.379Z,74.16
2018-08-17T06:27:25.468Z,74.19
2018-08-17T06:28:25.427Z,74.29
2018-08-17T06:29:25.448Z,74.10
2018-08-17T06:30:25.559Z,73.42
2018-08-17T06:31:25.497Z,73.71
2018-08-17T06:32:25.522Z,74.00
2018-08-17T06:33:25.542Z,73.61
2018-08-17T06:34:25.576Z,73.61
2018-08-17T06:35:25.594Z,72.94
2018-08-17T06:36:25.621Z,72.45
2018-08-17T06:37:25.746Z,72.45
2018-08-17T06:38:25.671Z,72.36
2018-08-17T06:39:25.850Z,72.16
2018-08-17T06:40:25.728Z,71.78
2018-08-17T06:41:25.819Z,71.58
2018-08-17T06:42:25.763Z,71.58
2018-08-17T06:43:25.844Z,71.30
2018-08-17T06:44:25.823Z,71.20
2018-08-17T06:45:25.847Z,71.48
2018-08-17T06:46:25.872Z,71.04
2018-08-17T06:47:25.888Z,70.72
2018-08-17T06:48:25.930Z,70.72
2018-08-17T06:49:25.942Z,70.65
2018-08-17T06:51:25.986Z,69.84
2018-08-17T06:52:26.029Z,69.56
2018-08-17T06:53:26.047Z,69.94
2018-08-17T06:54:26.081Z,69.30
2018-08-17T06:55:26.098Z,69.49
2018-08-17T06:56:26.120Z,69.59
2018-08-17T06:57:26.142Z,69.49
2018-08-17T06:58:26.172Z,69.94
2018-08-17T06:59:26.187Z,69.98
2018-08-17T07:00:26.220Z,69.59
2018-08-17T07:01:26.307Z,69.10
2018-08-17T07:02:26.318Z,69.98
2018-08-17T07:03:26.291Z,69.78
2018-08-17T07:04:26.312Z,69.98
2018-08-17T07:05:26.338Z,70.17
2018-08-17T07:06:26.368Z,70.36
2018-08-17T07:07:26.390Z,69.98
2018-08-17T07:08:26.425Z,69.88
2018-08-17T07:09:26.546Z,69.78
2018-08-17T07:10:26.467Z,69.49
2018-08-17T07:11:26.501Z,69.01
2018-08-17T07:12:26.515Z,69.40
2018-08-17T07:13:26.596Z,68.72
2018-08-17T07:14:26.571Z,68.91
2018-08-17T07:15:26.597Z,67.94
2018-08-17T07:16:26.624Z,69.53
2018-08-17T07:17:26.648Z,69.33
2018-08-17T07:18:26.708Z,69.62
2018-08-17T07:19:26.700Z,68.66
2018-08-17T07:20:26.745Z,67.79
2018-08-17T07:21:26.755Z,67.79
2018-08-17T07:22:26.772Z,67.49
2018-08-17T07:23:26.800Z,67.98
2018-08-17T07:24:26.816Z,67.88
2018-08-17T07:25:26.851Z,67.01
2018-08-17T07:26:26.873Z,66.63
2018-08-17T07:27:26.896Z,66.33
2018-08-17T07:28:26.932Z,66.53
2018-08-17T07:29:26.954Z,66.33
2018-08-17T07:30:26.975Z,66.24
2018-08-17T07:31:26.999Z,66.63
2018-08-17T07:32:27.028Z,66.43
2018-08-17T07:33:27.052Z,66.05
2018-08-17T07:34:27.081Z,66.43
2018-08-17T07:35:27.096Z,65.47
2018-08-17T07:36:27.137Z,65.95
2018-08-17T07:37:27.172Z,66.33
2018-08-17T07:38:27.178Z,66.14
2018-08-17T07:39:27.204Z,65.85
2018-08-17T07:40:27.226Z,66.47
2018-08-17T07:41:27.257Z,65.40
2018-08-17T07:42:27.277Z,66.14
2018-08-17T07:43:27.306Z,66.53
2018-08-17T07:44:27.336Z,66.72
2018-08-17T07:45:27.363Z,66.47
2018-08-17T07:46:27.382Z,65.79
2018-08-17T07:47:27.472Z,65.98
2018-08-17T07:48:27.432Z,65.30
2018-08-17T07:49:27.462Z,65.20
2018-08-17T07:50:27.488Z,64.62
2018-08-17T07:51:27.516Z,64.92
2018-08-17T07:52:27.532Z,65.11
2018-08-17T07:53:27.595Z,64.72
2018-08-17T07:54:27.583Z,64.72
2018-08-17T07:55:27.617Z,65.01
2018-08-17T07:56:27.641Z,65.30
2018-08-17T07:57:27.669Z,64.62
2018-08-17T07:58:27.692Z,64.92
2018-08-17T07:59:27.720Z,65.20
2018-08-17T08:00:27.744Z,65.11
2018-08-17T08:01:27.771Z,64.24
2018-08-17T08:02:27.788Z,64.82
2018-08-17T08:03:27.819Z,64.62
2018-08-17T08:04:27.858Z,64.62
2018-08-17T08:05:27.876Z,64.43
2018-08-17T08:06:27.914Z,64.04
2018-08-17T08:07:27.924Z,64.14
2018-08-17T08:08:27.953Z,64.24
2018-08-17T08:09:27.975Z,63.98
2018-08-17T08:10:28.005Z,63.56
2018-08-17T08:11:28.027Z,63.76
2018-08-17T08:12:28.058Z,63.49
2018-08-17T08:13:28.081Z,63.59
2018-08-17T08:14:28.106Z,62.92
2018-08-17T08:15:28.135Z,61.95
2018-08-17T08:16:28.197Z,62.53
2018-08-17T08:17:28.183Z,62.72
2018-08-17T08:18:28.226Z,62.82
2018-08-17T08:19:28.232Z,62.92
2018-08-17T08:20:28.440Z,63.40
2018-08-17T08:21:28.300Z,63.40
2018-08-17T08:22:28.321Z,63.31
2018-08-17T08:23:28.339Z,63.49
2018-08-17T08:24:28.370Z,63.59
2018-08-17T08:25:28.406Z,63.43
2018-08-17T08:26:28.433Z,63.62
2018-08-17T08:27:28.448Z,63.53
2018-08-17T08:28:28.506Z,63.04
2018-08-17T08:29:28.505Z,63.14
2018-08-17T08:30:28.523Z,63.34
2018-08-17T08:31:28.551Z,63.72
2018-08-17T08:32:28.596Z,63.24
2018-08-17T08:33:28.615Z,62.66
2018-08-17T08:34:28.635Z,63.24
2018-08-17T08:35:28.662Z,63.14
2018-08-17T08:36:28.688Z,63.04
2018-08-17T08:37:28.713Z,62.85
2018-08-17T08:38:28.743Z,63.24
2018-08-17T08:39:28.769Z,63.14
2018-08-17T08:40:28.797Z,63.43
2018-08-17T08:41:28.833Z,62.75
2018-08-17T08:42:28.853Z,63.14
2018-08-17T08:43:28.870Z,63.43
2018-08-17T08:44:28.933Z,63.72
2018-08-17T08:45:28.957Z,63.43
2018-08-17T08:46:28.972Z,62.88
2018-08-17T08:47:28.970Z,62.66
2018-08-17T08:48:29.015Z,62.85
2018-08-17T08:49:29.037Z,62.88
2018-08-17T08:50:29.082Z,63.27
2018-08-17T08:51:29.088Z,62.79
2018-08-17T08:52:29.114Z,62.66
2018-08-17T08:53:29.139Z,62.10
2018-08-17T08:54:29.200Z,62.17
2018-08-17T08:55:29.192Z,61.79
2018-08-17T08:56:29.219Z,62.01
2018-08-17T08:57:29.243Z,61.52
2018-08-17T08:58:29.275Z,61.43
2018-08-17T08:59:29.296Z,61.62
2018-08-17T09:00:29.321Z,62.01
2018-08-17T09:01:29.357Z,61.52
2018-08-17T09:02:29.418Z,61.49
2018-08-17T09:03:29.407Z,62.01
2018-08-17T09:04:29.432Z,62.01
2018-08-17T09:05:29.460Z,61.43
2018-08-17T09:06:29.492Z,61.14
2018-08-17T09:07:29.515Z,61.62
2018-08-17T09:08:29.602Z,62.40
2018-08-17T09:09:29.568Z,62.20
2018-08-17T09:10:29.613Z,62.88
2018-08-17T09:11:29.641Z,62.33
2018-08-17T09:12:29.653Z,62.10
2018-08-17T09:13:29.673Z,62.13
2018-08-17T09:14:29.704Z,61.36
2018-08-17T09:15:29.728Z,61.91
2018-08-17T09:16:29.757Z,62.10
2018-08-17T09:17:29.787Z,62.01
2018-08-17T09:18:29.828Z,62.01
2018-08-17T09:19:29.842Z,62.04
2018-08-17T09:20:29.873Z,61.85
2018-08-17T09:21:29.897Z,61.94
2018-08-17T09:22:29.921Z,62.13
2018-08-17T09:23:29.957Z,61.46
2018-08-17T09:24:29.972Z,61.36
2018-08-17T09:25:30.005Z,60.88
2018-08-17T09:26:30.027Z,60.88
2018-08-17T09:27:30.067Z,60.78
2018-08-17T09:28:30.086Z,60.30
2018-08-17T09:29:30.123Z,60.97
2018-08-17T09:30:30.147Z,60.78
2018-08-17T09:31:30.174Z,60.58
2018-08-17T09:32:30.187Z,60.78
2018-08-17T09:33:30.236Z,60.78
2018-08-17T09:34:30.254Z,60.39
2018-08-17T09:35:30.270Z,60.10
2018-08-17T09:36:30.303Z,60.30
2018-08-17T09:37:30.327Z,60.30
2018-08-17T09:38:30.359Z,60.00
2018-08-17T09:39:30.390Z,60.00
2018-08-17T09:40:30.418Z,59.61
2018-08-17T09:41:30.442Z,59.91
2018-08-17T09:42:30.480Z,60.30
2018-08-17T09:43:30.496Z,60.00
2018-08-17T09:44:30.525Z,59.42
2018-08-17T09:45:30.570Z,59.45
2018-08-17T09:46:30.576Z,59.36
2018-08-17T09:47:30.605Z,59.45
2018-08-17T09:48:30.640Z,58.58
2018-08-17T09:49:30.662Z,58.97
2018-08-17T09:50:30.694Z,59.06
2018-08-17T09:51:30.717Z,59.06
2018-08-17T09:52:30.749Z,58.97
2018-08-17T09:53:30.771Z,58.77
2018-08-17T09:54:30.802Z,58.22
2018-08-17T09:55:30.829Z,56.86
2018-08-17T09:56:30.855Z,57.80
2018-08-17T09:57:30.949Z,58.29
2018-08-17T09:58:30.912Z,57.80
2018-08-17T09:59:30.949Z,58.09
2018-08-17T10:00:30.988Z,58.09
2018-08-17T10:01:31.020Z,57.90
2018-08-17T10:02:31.031Z,57.51
2018-08-17T10:03:31.069Z,57.70
2018-08-17T10:04:31.074Z,57.03
2018-08-17T10:05:31.099Z,57.12
2018-08-17T10:06:31.136Z,57.12
2018-08-17T10:07:31.155Z,57.90
2018-08-17T10:08:31.190Z,57.61
2018-08-17T10:09:31.215Z,57.32
2018-08-17T10:10:31.245Z,56.45
2018-08-17T10:11:31.270Z,57.32
2018-08-17T10:12:31.316Z,56.93
2018-08-17T10:13:31.329Z,56.67
2018-08-17T10:14:31.353Z,55.89
2018-08-17T10:15:31.383Z,55.69
2018-08-17T10:16:31.413Z,55.69
2018-08-17T10:17:31.437Z,55.11
2018-08-17T10:18:31.474Z,55.31
2018-08-17T10:19:31.501Z,54.92
2018-08-17T10:20:31.523Z,54.92
2018-08-17T10:21:31.846Z,55.11
2018-08-17T10:22:31.577Z,54.82
2018-08-17T10:23:31.607Z,55.31
2018-08-17T10:24:31.639Z,55.79
2018-08-17T10:25:31.663Z,55.82
2018-08-17T10:26:31.687Z,55.63
2018-08-17T10:27:31.728Z,55.04
2018-08-17T10:28:31.759Z,55.43
2018-08-17T10:29:31.784Z,55.04
2018-08-17T10:30:31.801Z,54.34
2018-08-17T10:31:31.831Z,55.89
2018-08-17T10:32:31.874Z,55.14
2018-08-17T10:33:32.180Z,55.04
2018-08-17T10:34:31.926Z,55.33
2018-08-17T10:35:31.943Z,55.92
2018-08-17T10:36:31.974Z,55.82
2018-08-17T10:37:31.995Z,55.82
2018-08-17T10:38:32.031Z,55.82
2018-08-17T10:39:32.060Z,55.36
2018-08-17T10:40:32.088Z,55.63
2018-08-17T10:41:32.108Z,57.08
2018-08-17T10:42:32.143Z,57.57
2018-08-17T10:43:32.161Z,57.15
2018-08-17T10:44:32.196Z,57.54
2018-08-17T10:45:32.231Z,57.28
2018-08-17T10:46:32.266Z,57.96
2018-08-17T10:47:32.299Z,56.98
2018-08-17T10:48:32.309Z,56.89
2018-08-17T10:49:32.340Z,55.04
2018-08-17T10:50:32.373Z,55.17
2018-08-17T10:51:32.394Z,54.94
2018-08-17T10:52:32.434Z,54.97
2018-08-17T10:53:32.826Z,53.71
2018-08-17T10:54:32.480Z,54.49
2018-08-17T10:55:32.554Z,54.78
2018-08-17T10:56:32.545Z,54.75
2018-08-17T10:57:32.654Z,54.58
2018-08-17T10:58:32.614Z,54.49
2018-08-17T10:59:32.621Z,54.78
2018-08-17T11:00:32.649Z,54.20
2018-08-17T11:01:32.677Z,54.78
2018-08-17T11:02:32.708Z,55.14
2018-08-17T11:03:32.733Z,55.04
2018-08-17T11:04:32.759Z,55.04
2018-08-17T11:05:32.793Z,54.58
2018-08-17T11:06:32.818Z,53.71
2018-08-17T11:07:32.849Z,54.00
2018-08-17T11:08:32.876Z,53.03
2018-08-17T11:09:32.906Z,53.74
2018-08-17T11:10:32.947Z,53.83
2018-08-17T11:11:32.964Z,53.13
2018-08-17T11:12:32.992Z,53.71
2018-08-17T11:13:33.082Z,54.20
2018-08-17T11:14:33.053Z,53.91
2018-08-17T11:15:33.081Z,53.61
2018-08-17T11:16:33.110Z,53.91
2018-08-17T11:17:33.140Z,53.93
2018-08-17T11:18:33.169Z,53.61
2018-08-17T11:19:33.194Z,53.52
2018-08-17T11:20:33.220Z,53.74
2018-08-17T11:21:33.257Z,53.64
2018-08-17T11:22:33.282Z,53.42
2018-08-17T11:23:33.308Z,52.76
2018-08-17T11:24:33.334Z,52.67
2018-08-17T11:25:33.368Z,53.45
2018-08-17T11:26:33.393Z,53.54
2018-08-17T11:27:33.420Z,53.54
2018-08-17T11:28:33.467Z,53.45
2018-08-17T11:29:33.477Z,53.54
2018-08-17T11:30:33.513Z,54.20
2018-08-17T11:31:33.538Z,53.83
2018-08-17T11:32:33.564Z,53.64
2018-08-17T11:33:33.596Z,53.83
2018-08-17T11:34:33.620Z,53.45
2018-08-17T11:35:33.668Z,53.35
2018-08-17T11:36:33.685Z,53.64
2018-08-17T11:37:33.707Z,53.64
2018-08-17T11:38:33.737Z,53.28
2018-08-17T11:39:33.780Z,53.83
2018-08-17T11:40:33.812Z,53.18
2018-08-17T11:41:33.936Z,52.50
2018-08-17T11:42:33.856Z,52.79
2018-08-17T11:43:33.891Z,53.67
2018-08-17T11:44:33.914Z,53.47
2018-08-17T11:45:33.943Z,53.86
2018-08-17T11:46:33.974Z,53.28
2018-08-17T11:47:34.000Z,53.83
2018-08-17T11:48:34.036Z,53.74
2018-08-17T11:49:34.051Z,53.18
2018-08-17T11:50:34.088Z,52.98
2018-08-17T11:51:34.113Z,53.18
2018-08-17T11:52:34.139Z,53.38
2018-08-17T11:53:34.247Z,52.98
2018-08-17T11:54:34.197Z,52.33
2018-08-17T11:55:34.253Z,51.94
2018-08-17T11:56:34.272Z,51.84
2018-08-17T11:57:34.317Z,52.92
2018-08-17T11:58:34.329Z,52.69
2018-08-17T11:59:34.346Z,52.79
2018-08-17T12:00:34.382Z,52.40
2018-08-17T12:01:34.407Z,52.40
2018-08-17T12:02:34.443Z,52.62
2018-08-17T12:03:34.473Z,52.53
2018-08-17T12:04:34.505Z,52.59
2018-08-17T12:05:34.521Z,52.33
2018-08-17T12:06:34.549Z,52.23
2018-08-17T12:07:34.627Z,52.53
2018-08-17T12:08:34.641Z,52.04
2018-08-17T12:09:34.658Z,52.43
2018-08-17T12:10:34.681Z,52.36
2018-08-17T12:12:34.744Z,52.04
2018-08-17T12:13:34.759Z,51.58
2018-08-17T12:14:34.787Z,51.39
2018-08-17T12:16:34.850Z,51.48
2018-08-17T12:17:34.883Z,51.55
2018-08-17T12:18:34.921Z,51.84
2018-08-17T12:19:34.944Z,51.84
2018-08-17T12:20:34.975Z,52.33
2018-08-17T12:21:35.012Z,52.53
2018-08-17T12:22:35.036Z,51.67
2018-08-17T12:23:35.058Z,51.48
2018-08-17T12:24:35.290Z,51.58
2018-08-17T12:25:35.127Z,50.43
2018-08-17T12:26:35.174Z,51.09
2018-08-17T12:27:35.183Z,51.39
2018-08-17T12:28:35.213Z,51.09
2018-08-17T12:29:35.249Z,51.29
2018-08-17T12:30:35.270Z,51.39
2018-08-17T12:31:35.300Z,51.87
2018-08-17T12:32:35.336Z,52.06
2018-08-17T12:33:35.363Z,52.16
2018-08-17T12:34:35.393Z,51.29
2018-08-17T12:35:35.425Z,50.80
2018-08-17T12:36:35.449Z,51.19
2018-08-17T12:37:35.481Z,51.67
2018-08-17T12:38:35.515Z,51.48
2018-08-17T12:39:35.540Z,51.29
2018-08-17T12:40:35.597Z,51.09
2018-08-17T12:41:35.613Z,50.90
2018-08-17T12:42:35.640Z,50.82
2018-08-17T12:43:35.668Z,50.92
2018-08-17T12:44:35.706Z,50.24
2018-08-17T12:45:35.723Z,50.24
2018-08-17T12:46:35.859Z,50.04
2018-08-17T12:47:35.791Z,50.04
2018-08-17T12:48:35.817Z,50.43
2018-08-17T12:49:35.842Z,50.99
2018-08-17T12:50:35.877Z,50.43
2018-08-17T12:51:35.908Z,49.66
2018-08-17T12:52:35.931Z,49.95
2018-08-17T12:53:35.965Z,49.76
2018-08-17T12:54:35.999Z,49.85
2018-08-17T12:55:36.026Z,49.37
2018-08-17T12:56:36.056Z,49.37
2018-08-17T12:57:36.082Z,48.97